Rio Claro, Brazil
Current Conditions -  °F | °C
As of 2:00 PM on Thursday 23 Oct 2014 (Local Time) from SBYS Reporting Station
Scattered Clouds Scattered Clouds  
Wind Chill: 86°   Ceiling: Unl
Heat Index: 86°   Visibility: 6mi
Dew Point: 57°   Wind: 7mph
Humidity: 37%   Direction: 300°WNW
Pressure: 30.03"   Gusts: NA
Location:  22.41°S, 47.56°W
Report Text: SBYS 231600Z 30006KT 9999 SCT045 30/14 Q1017
Loading
Personal Weather Stations






























Interactive Weather Map
Tropical Storm Tracking
New forecast layout! Learn more

10-Day Weather Forecast

Advertisements
Track Severe Weather on mobile